createdAt,value
2022-08-29T00:00:09.645Z,72.58
2022-08-29T00:01:10.668Z,72.58
2022-08-29T00:02:09.683Z,72.61
2022-08-29T00:03:09.615Z,73.33
2022-08-29T00:04:09.682Z,73.33
2022-08-29T00:05:09.593Z,73.73
2022-08-29T00:06:09.587Z,74.14
2022-08-29T00:07:09.642Z,72.72
2022-08-29T00:08:09.558Z,73.93
2022-08-29T00:09:09.540Z,73.73
2022-08-29T00:10:09.530Z,73.02
2022-08-29T00:11:09.529Z,73.63
2022-08-29T00:12:09.520Z,74.65
2022-08-29T00:13:09.570Z,73.33
2022-08-29T00:14:20.459Z,73.97
2022-08-29T00:15:10.484Z,74.88
2022-08-29T00:16:09.510Z,73.97
2022-08-29T00:17:09.461Z,73.77
2022-08-29T00:18:09.498Z,73.97
2022-08-29T00:19:09.520Z,73.97
2022-08-29T00:20:09.439Z,74.07
2022-08-29T00:21:09.415Z,74.17
2022-08-29T00:22:09.401Z,73.77
2022-08-29T00:23:09.396Z,73.97
2022-08-29T00:24:09.413Z,74.38
2022-08-29T00:25:09.370Z,75.19
2022-08-29T00:26:09.361Z,74.78
2022-08-29T00:27:09.351Z,74.27
2022-08-29T00:28:09.343Z,74.17
2022-08-29T00:29:09.324Z,73.77
2022-08-29T00:30:09.345Z,74.07
2022-08-29T00:31:09.303Z,74.78
2022-08-29T00:32:09.382Z,74.78
2022-08-29T00:33:09.274Z,74.98
2022-08-29T00:34:09.284Z,74.58
2022-08-29T00:35:09.273Z,74.78
2022-08-29T00:36:09.266Z,74.98
2022-08-29T00:37:09.235Z,74.51
2022-08-29T00:38:09.223Z,74.31
2022-08-29T00:39:09.418Z,74.71
2022-08-29T00:40:09.257Z,75.12
2022-08-29T00:41:09.201Z,75.52
2022-08-29T00:42:09.187Z,75.32
2022-08-29T00:43:09.173Z,74.92
2022-08-29T00:44:09.169Z,74.82
2022-08-29T00:45:09.143Z,76.03
2022-08-29T00:46:09.258Z,75.52
2022-08-29T00:47:09.127Z,75.32
2022-08-29T00:48:09.126Z,75.32
2022-08-29T00:49:09.107Z,75.16
2022-08-29T00:50:09.105Z,76.07
2022-08-29T00:51:09.082Z,75.67
2022-08-29T00:52:09.087Z,75.97
2022-08-29T00:53:09.057Z,75.87
2022-08-29T00:54:09.059Z,76.68
2022-08-29T00:55:09.043Z,75.56
2022-08-29T00:56:09.028Z,75.87
2022-08-29T00:57:09.018Z,76.07
2022-08-29T00:58:09.028Z,75.87
2022-08-29T00:59:08.987Z,75.87
2022-08-29T01:00:09.000Z,75.87
2022-08-29T01:01:09.000Z,75.87
2022-08-29T01:02:09.136Z,75.87
2022-08-29T01:03:08.951Z,76.28
2022-08-29T01:04:09.803Z,76.07
2022-08-29T01:05:09.943Z,77.39
2022-08-29T01:06:08.908Z,77.19
2022-08-29T01:07:08.899Z,76.07
2022-08-29T01:08:08.939Z,76.48
2022-08-29T01:09:08.878Z,76.58
2022-08-29T01:10:13.294Z,76.28
2022-08-29T01:11:09.862Z,75.67
2022-08-29T01:12:08.859Z,76.28
2022-08-29T01:13:08.857Z,75.87
2022-08-29T01:14:08.842Z,76.07
2022-08-29T01:15:08.819Z,76.68
2022-08-29T01:16:08.842Z,76.17
2022-08-29T01:17:08.787Z,75.76
2022-08-29T01:18:08.774Z,76.58
2022-08-29T01:19:08.802Z,76.07
2022-08-29T01:20:08.754Z,75.87
2022-08-29T01:21:08.753Z,76.37
2022-08-29T01:22:08.723Z,76.07
2022-08-29T01:23:08.732Z,76.28
2022-08-29T01:24:08.729Z,75.87
2022-08-29T01:25:08.743Z,76.17
2022-08-29T01:26:08.692Z,76.17
2022-08-29T01:27:08.684Z,75.87
2022-08-29T01:28:08.666Z,75.76
2022-08-29T01:29:08.643Z,76.58
2022-08-29T01:30:08.634Z,76.28
2022-08-29T01:31:08.738Z,75.76
2022-08-29T01:32:08.649Z,75.97
2022-08-29T01:33:08.604Z,76.07
2022-08-29T01:34:08.585Z,75.87
2022-08-29T01:35:08.596Z,75.76
2022-08-29T01:36:08.566Z,75.76
2022-08-29T01:37:08.576Z,75.76
2022-08-29T01:38:08.546Z,75.56
2022-08-29T01:39:08.540Z,75.32
2022-08-29T01:40:08.571Z,75.12
2022-08-29T01:41:08.505Z,75.26
2022-08-29T01:42:08.529Z,75.12
2022-08-29T01:43:08.489Z,74.92
2022-08-29T01:44:08.469Z,75.02
2022-08-29T01:45:09.741Z,74.71
2022-08-29T01:46:08.491Z,74.62
2022-08-29T01:47:08.448Z,74.62
2022-08-29T01:48:08.447Z,74.71
2022-08-29T01:49:08.419Z,74.58
2022-08-29T01:50:08.398Z,74.48
2022-08-29T01:51:08.423Z,74.27
2022-08-29T01:52:08.401Z,74.27
2022-08-29T01:53:08.381Z,74.38
2022-08-29T01:54:08.377Z,74.27
2022-08-29T01:55:08.361Z,74.27
2022-08-29T01:56:08.360Z,74.27
2022-08-29T01:57:12.312Z,74.17
2022-08-29T01:58:08.320Z,74.27
2022-08-29T01:59:08.289Z,74.17
2022-08-29T02:00:08.333Z,74.38
2022-08-29T02:01:08.321Z,74.38
2022-08-29T02:02:08.307Z,74.38
2022-08-29T02:03:08.255Z,74.51
2022-08-29T02:04:08.254Z,74.62
2022-08-29T02:05:08.250Z,75.22
2022-08-29T02:06:08.221Z,75.02
2022-08-29T02:07:12.005Z,75.02
2022-08-29T02:08:08.203Z,75.26
2022-08-29T02:09:08.183Z,75.36
2022-08-29T02:10:08.171Z,75.46
2022-08-29T02:11:08.172Z,75.46
2022-08-29T02:12:08.153Z,75.46
2022-08-29T02:13:08.131Z,76.28
2022-08-29T02:14:08.124Z,75.76
2022-08-29T02:15:09.115Z,75.87
2022-08-29T02:16:08.157Z,75.87
2022-08-29T02:17:08.096Z,76.17
2022-08-29T02:18:08.114Z,76.07
2022-08-29T02:19:08.065Z,76.07
2022-08-29T02:20:08.067Z,75.97
2022-08-29T02:21:08.042Z,75.87
2022-08-29T02:22:08.055Z,75.67
2022-08-29T02:23:21.862Z,75.87
2022-08-29T02:24:24.330Z,75.76
2022-08-29T02:25:09.019Z,75.46
2022-08-29T02:26:07.995Z,75.36
2022-08-29T02:27:09.510Z,75.56
2022-08-29T02:28:07.971Z,75.67
2022-08-29T02:29:07.965Z,75.87
2022-08-29T02:30:07.948Z,75.97
2022-08-29T02:31:07.974Z,75.76
2022-08-29T02:32:08.011Z,75.67
2022-08-29T02:33:07.926Z,75.56
2022-08-29T02:34:07.915Z,75.87
2022-08-29T02:35:07.888Z,75.87
2022-08-29T02:36:07.880Z,75.67
2022-08-29T02:37:07.866Z,75.76
2022-08-29T02:38:07.921Z,75.76
2022-08-29T02:39:07.860Z,75.97
2022-08-29T02:40:07.858Z,76.07
2022-08-29T02:41:11.251Z,76.31
2022-08-29T02:42:08.816Z,76.61
2022-08-29T02:43:07.788Z,76.51
2022-08-29T02:44:07.811Z,76.82
2022-08-29T02:45:07.769Z,76.95
2022-08-29T02:46:07.758Z,77.06
2022-08-29T02:47:07.789Z,77.36
2022-08-29T02:48:07.781Z,77.67
2022-08-29T02:49:07.750Z,77.56
2022-08-29T02:50:07.717Z,77.87
2022-08-29T02:51:07.707Z,77.77
2022-08-29T02:52:07.694Z,77.87
2022-08-29T02:53:07.669Z,77.91
2022-08-29T02:54:07.662Z,78.01
2022-08-29T02:55:07.682Z,77.87
2022-08-29T02:56:07.638Z,77.87
2022-08-29T02:57:07.634Z,77.77
2022-08-29T02:58:07.709Z,77.97
2022-08-29T02:59:07.620Z,77.87
2022-08-29T03:00:07.599Z,77.87
2022-08-29T03:01:07.714Z,77.87
2022-08-29T03:02:07.627Z,77.87
2022-08-29T03:03:07.585Z,77.87
2022-08-29T03:04:07.549Z,77.87
2022-08-29T03:05:07.541Z,77.97
2022-08-29T03:06:09.980Z,77.87
2022-08-29T03:07:07.526Z,77.87
2022-08-29T03:08:07.547Z,77.87
2022-08-29T03:09:07.501Z,78.11
2022-08-29T03:10:07.473Z,78.41
2022-08-29T03:11:07.474Z,78.21
2022-08-29T03:12:07.505Z,78.11
2022-08-29T03:13:07.464Z,77.87
2022-08-29T03:14:07.437Z,77.77
2022-08-29T03:15:07.415Z,77.87
2022-08-29T03:16:07.441Z,77.87
2022-08-29T03:17:07.417Z,78.11
2022-08-29T03:18:07.509Z,78.31
2022-08-29T03:19:07.384Z,78.41
2022-08-29T03:20:07.364Z,78.41
2022-08-29T03:21:07.363Z,78.52
2022-08-29T03:22:07.345Z,78.62
2022-08-29T03:23:07.334Z,78.52
2022-08-29T03:24:07.379Z,78.52
2022-08-29T03:25:07.318Z,78.52
2022-08-29T03:26:07.294Z,78.82
2022-08-29T03:27:07.310Z,78.72
2022-08-29T03:28:07.326Z,78.72
2022-08-29T03:29:07.269Z,78.52
2022-08-29T03:30:07.273Z,78.72
2022-08-29T03:31:07.270Z,79.02
2022-08-29T03:32:07.226Z,78.82
2022-08-29T03:33:11.513Z,78.72
2022-08-29T03:34:07.210Z,78.52
2022-08-29T03:35:07.239Z,78.62
2022-08-29T03:36:13.793Z,78.82
2022-08-29T03:37:08.168Z,79.13
2022-08-29T03:38:07.176Z,79.06
2022-08-29T03:39:07.147Z,79.02
2022-08-29T03:40:07.156Z,79.02
2022-08-29T03:41:07.169Z,79.16
2022-08-29T03:42:07.122Z,79.27
2022-08-29T03:43:07.117Z,79.13
2022-08-29T03:44:07.089Z,79.13
2022-08-29T03:45:07.078Z,79.27
2022-08-29T03:46:07.127Z,79.37
2022-08-29T03:47:07.115Z,79.37
2022-08-29T03:48:07.042Z,79.37
2022-08-29T03:49:07.023Z,79.57
2022-08-29T03:50:07.033Z,79.68
2022-08-29T03:51:07.001Z,79.88
2022-08-29T03:52:07.030Z,79.88
2022-08-29T03:53:06.979Z,79.88
2022-08-29T03:54:06.989Z,79.88
2022-08-29T03:55:06.961Z,79.88
2022-08-29T03:56:06.951Z,80.08
2022-08-29T03:57:06.942Z,80.08
2022-08-29T03:58:06.945Z,80.08
2022-08-29T03:59:06.911Z,80.32
2022-08-29T04:00:06.902Z,80.42
2022-08-29T04:01:06.893Z,80.52
2022-08-29T04:02:06.951Z,80.42
2022-08-29T04:03:06.950Z,80.63
2022-08-29T04:04:06.852Z,80.52
2022-08-29T04:05:08.209Z,80.52
2022-08-29T04:06:06.851Z,80.73
2022-08-29T04:07:06.822Z,80.73
2022-08-29T04:08:06.813Z,80.93
2022-08-29T04:09:06.832Z,80.93
2022-08-29T04:10:06.795Z,80.83
2022-08-29T04:11:06.777Z,81.04
2022-08-29T04:12:06.755Z,81.13
2022-08-29T04:13:06.755Z,81.27
2022-08-29T04:14:06.744Z,81.48
2022-08-29T04:15:06.759Z,81.48
2022-08-29T04:16:06.808Z,81.48
2022-08-29T04:17:06.740Z,81.58
2022-08-29T04:18:06.793Z,81.58
2022-08-29T04:19:06.683Z,81.58
2022-08-29T04:20:06.668Z,81.58
2022-08-29T04:21:06.686Z,81.58
2022-08-29T04:22:06.646Z,81.79
2022-08-29T04:23:06.666Z,81.68
2022-08-29T04:24:06.636Z,81.58
2022-08-29T04:25:06.631Z,81.58
2022-08-29T04:26:31.303Z,81.48
2022-08-29T04:27:07.647Z,81.44
2022-08-29T04:28:06.578Z,81.44
2022-08-29T04:29:06.576Z,81.34
2022-08-29T04:30:06.557Z,81.34
2022-08-29T04:31:06.579Z,81.48
2022-08-29T04:32:06.538Z,81.68
2022-08-29T04:33:06.559Z,81.68
2022-08-29T04:34:06.517Z,81.44
2022-08-29T04:35:06.518Z,81.44
2022-08-29T04:36:06.489Z,81.24
2022-08-29T04:37:06.491Z,81.24
2022-08-29T04:38:06.470Z,81.24
2022-08-29T04:39:06.491Z,81.13
2022-08-29T04:40:06.481Z,81.04
2022-08-29T04:41:06.438Z,80.93
2022-08-29T04:42:06.431Z,80.93
2022-08-29T04:43:06.872Z,81.04
2022-08-29T04:44:06.743Z,81.04
2022-08-29T04:45:06.583Z,81.13
2022-08-29T04:46:06.486Z,81.34
2022-08-29T04:47:06.491Z,81.24
2022-08-29T04:48:06.474Z,81.13
2022-08-29T04:49:06.394Z,81.04
2022-08-29T04:50:06.338Z,81.04
2022-08-29T04:51:06.382Z,81.24
2022-08-29T04:52:06.350Z,81.24
2022-08-29T04:53:06.380Z,81.13
2022-08-29T04:54:06.305Z,81.10
2022-08-29T04:55:06.301Z,81.13
2022-08-29T04:56:06.293Z,81.10
2022-08-29T04:57:07.657Z,81.13
2022-08-29T04:58:06.316Z,81.10
2022-08-29T04:59:06.221Z,81.10
2022-08-29T05:00:06.322Z,80.90
2022-08-29T05:01:06.238Z,80.69
2022-08-29T05:02:06.325Z,80.59
2022-08-29T05:03:06.290Z,80.38
2022-08-29T05:04:06.231Z,80.38
2022-08-29T05:05:06.169Z,80.49
2022-08-29T05:06:06.322Z,80.59
2022-08-29T05:07:06.323Z,80.49
2022-08-29T05:08:06.215Z,80.59
2022-08-29T05:09:06.153Z,80.59
2022-08-29T05:10:06.129Z,80.45
2022-08-29T05:11:06.146Z,80.45
2022-08-29T05:12:10.036Z,80.49
2022-08-29T05:13:06.240Z,80.45
2022-08-29T05:14:06.064Z,80.45
2022-08-29T05:15:06.062Z,80.55
2022-08-29T05:16:06.119Z,80.45
2022-08-29T05:17:06.047Z,80.55
2022-08-29T05:18:06.058Z,80.55
2022-08-29T05:19:06.050Z,80.35
2022-08-29T05:20:06.064Z,80.35
2022-08-29T05:21:06.049Z,80.24
2022-08-29T05:22:05.983Z,80.35
2022-08-29T05:23:05.967Z,80.24
2022-08-29T05:24:06.077Z,80.24
2022-08-29T05:25:05.953Z,80.24
2022-08-29T05:26:05.966Z,80.15
2022-08-29T05:27:05.917Z,80.15
2022-08-29T05:28:05.913Z,80.04
2022-08-29T05:29:08.685Z,80.00
2022-08-29T05:30:05.927Z,80.00
2022-08-29T05:31:05.923Z,80.00
2022-08-29T05:32:05.878Z,80.00
2022-08-29T05:33:05.838Z,79.90
2022-08-29T05:34:16.338Z,79.80
2022-08-29T05:35:06.835Z,79.80
2022-08-29T05:36:05.808Z,79.80
2022-08-29T05:37:05.801Z,79.70
2022-08-29T05:38:09.205Z,79.60
2022-08-29T05:39:05.782Z,79.50
2022-08-29T05:40:05.809Z,79.50
2022-08-29T05:41:05.778Z,79.60
2022-08-29T05:42:05.755Z,79.46
2022-08-29T05:43:05.719Z,79.46
2022-08-29T05:44:05.750Z,79.25
2022-08-29T05:45:05.701Z,79.16
2022-08-29T05:46:05.773Z,79.16
2022-08-29T05:47:05.720Z,79.05
2022-08-29T05:48:05.671Z,78.95
2022-08-29T05:49:05.661Z,78.81
2022-08-29T05:50:05.729Z,78.61
2022-08-29T05:51:05.678Z,78.71
2022-08-29T05:52:06.352Z,78.51
2022-08-29T05:53:05.651Z,78.41
2022-08-29T05:54:05.618Z,78.41
2022-08-29T05:55:05.579Z,78.17
2022-08-29T05:56:05.581Z,78.06
2022-08-29T05:57:05.571Z,78.06
2022-08-29T05:58:05.564Z,77.97
2022-08-29T05:59:05.563Z,77.97
2022-08-29T06:00:05.560Z,77.76
2022-08-29T06:01:05.542Z,77.66
2022-08-29T06:02:05.537Z,77.45
2022-08-29T06:03:05.657Z,77.42
2022-08-29T06:04:06.292Z,77.22
2022-08-29T06:05:05.513Z,77.22
2022-08-29T06:06:05.453Z,76.71
2022-08-29T06:07:05.515Z,76.71
2022-08-29T06:08:05.492Z,76.40
2022-08-29T06:09:05.447Z,76.37
2022-08-29T06:10:05.434Z,76.27
2022-08-29T06:11:05.435Z,75.96
2022-08-29T06:12:05.398Z,75.76
2022-08-29T06:13:05.401Z,75.76
2022-08-29T06:14:07.180Z,75.76
2022-08-29T06:15:05.395Z,75.52
2022-08-29T06:16:05.544Z,75.42
2022-08-29T06:17:05.337Z,75.42
2022-08-29T06:18:05.360Z,75.32
2022-08-29T06:19:06.086Z,75.18
2022-08-29T06:20:05.376Z,74.74
2022-08-29T06:21:05.326Z,74.24
2022-08-29T06:22:07.691Z,74.04
2022-08-29T06:23:05.315Z,73.83
2022-08-29T06:24:05.276Z,73.73
2022-08-29T06:25:27.993Z,73.63
2022-08-29T06:26:06.237Z,73.63
2022-08-29T06:27:05.240Z,73.93
2022-08-29T06:28:05.266Z,73.63
2022-08-29T06:29:05.229Z,73.83
2022-08-29T06:30:05.217Z,73.63
2022-08-29T06:31:05.320Z,73.83
2022-08-29T06:32:05.185Z,73.53
2022-08-29T06:33:05.189Z,73.73
2022-08-29T06:34:05.153Z,74.13
2022-08-29T06:35:05.206Z,73.19
2022-08-29T06:36:05.180Z,73.59
2022-08-29T06:37:05.149Z,73.29
2022-08-29T06:38:05.160Z,73.69
2022-08-29T06:39:05.139Z,73.49
2022-08-29T06:40:05.197Z,72.85
2022-08-29T06:41:05.072Z,72.34
2022-08-29T06:42:05.071Z,72.34
2022-08-29T06:43:05.042Z,72.48
2022-08-29T06:44:05.068Z,72.99
2022-08-29T06:45:05.023Z,72.95
2022-08-29T06:46:05.059Z,72.51
2022-08-29T06:47:04.991Z,71.50
2022-08-29T06:48:05.006Z,71.77
2022-08-29T06:49:04.964Z,71.26
2022-08-29T06:50:05.002Z,71.06
2022-08-29T06:51:04.965Z,70.93
2022-08-29T06:52:04.973Z,70.53
2022-08-29T06:53:26.330Z,70.32
2022-08-29T06:54:07.115Z,69.98
2022-08-29T06:55:04.913Z,70.22
2022-08-29T06:56:05.360Z,70.53
2022-08-29T06:57:04.874Z,70.22
2022-08-29T06:58:04.873Z,70.42
2022-08-29T06:59:04.880Z,70.42
2022-08-29T07:00:20.277Z,70.12
2022-08-29T07:01:05.947Z,70.12
2022-08-29T07:02:04.818Z,70.32
2022-08-29T07:03:04.880Z,70.42
2022-08-29T07:04:04.944Z,70.32
2022-08-29T07:05:04.803Z,70.53
2022-08-29T07:06:04.820Z,70.09
2022-08-29T07:07:04.828Z,70.12
2022-08-29T07:08:04.754Z,69.78
2022-08-29T07:09:04.728Z,69.82
2022-08-29T07:10:04.819Z,70.02
2022-08-29T07:11:04.724Z,70.09
2022-08-29T07:12:04.716Z,69.48
2022-08-29T07:13:04.734Z,69.45
2022-08-29T07:14:04.697Z,68.74
2022-08-29T07:15:04.680Z,68.95
2022-08-29T07:16:04.853Z,69.04
2022-08-29T07:17:04.668Z,69.15
2022-08-29T07:18:05.093Z,68.30
2022-08-29T07:19:04.659Z,68.01
2022-08-29T07:20:04.691Z,68.41
2022-08-29T07:21:04.648Z,67.97
2022-08-29T07:22:04.611Z,67.43
2022-08-29T07:23:04.580Z,66.93
2022-08-29T07:24:04.591Z,67.03
2022-08-29T07:25:04.559Z,67.36
2022-08-29T07:26:04.601Z,67.16
2022-08-29T07:27:04.541Z,67.23
2022-08-29T07:28:04.697Z,66.80
2022-08-29T07:29:04.620Z,66.63
2022-08-29T07:30:04.805Z,67.33
2022-08-29T07:31:05.669Z,67.13
2022-08-29T07:32:04.565Z,67.23
2022-08-29T07:33:05.005Z,66.93
2022-08-29T07:34:04.877Z,67.00
2022-08-29T07:35:04.615Z,66.39
2022-08-29T07:36:05.216Z,65.96
2022-08-29T07:37:05.844Z,65.76
2022-08-29T07:38:05.950Z,65.36
2022-08-29T07:39:06.048Z,65.12
2022-08-29T07:40:06.514Z,65.02
2022-08-29T07:41:05.325Z,65.66
2022-08-29T07:42:04.839Z,65.56
2022-08-29T07:43:05.110Z,65.66
2022-08-29T07:44:04.859Z,65.46
2022-08-29T07:45:05.194Z,65.42
2022-08-29T07:46:04.999Z,65.33
2022-08-29T07:47:04.548Z,64.72
2022-08-29T07:48:04.537Z,65.26
2022-08-29T07:49:06.688Z,65.76
2022-08-29T07:50:06.013Z,65.86
2022-08-29T07:51:09.813Z,65.62
2022-08-29T07:52:05.453Z,64.99
2022-08-29T07:53:04.903Z,64.59
2022-08-29T07:54:04.778Z,65.19
2022-08-29T07:55:04.448Z,64.59
2022-08-29T07:56:05.055Z,64.66
2022-08-29T07:57:05.698Z,63.56
2022-08-29T07:58:05.040Z,63.42
2022-08-29T07:59:04.550Z,63.02
2022-08-29T08:00:06.147Z,62.92
2022-08-29T08:01:05.382Z,63.48
2022-08-29T08:02:04.549Z,64.29
2022-08-29T08:03:04.400Z,64.76
2022-08-29T08:04:05.486Z,63.73
2022-08-29T08:05:06.699Z,62.99
2022-08-29T08:06:07.212Z,62.59
2022-08-29T08:07:04.345Z,62.59
2022-08-29T08:08:15.515Z,62.26
2022-08-29T08:09:05.405Z,62.16
2022-08-29T08:10:04.737Z,61.55
2022-08-29T08:11:04.387Z,62.08
2022-08-29T08:12:08.149Z,62.59
2022-08-29T08:13:04.391Z,62.76
2022-08-29T08:14:04.253Z,61.76
2022-08-29T08:15:05.449Z,62.52
2022-08-29T08:16:04.360Z,62.92
2022-08-29T08:17:04.304Z,62.79
2022-08-29T08:18:04.983Z,62.72
2022-08-29T08:19:04.009Z,62.92
2022-08-29T08:20:03.997Z,63.09
2022-08-29T08:21:03.904Z,62.69
2022-08-29T08:22:03.934Z,62.46
2022-08-29T08:23:03.983Z,61.63
2022-08-29T08:24:03.874Z,60.93
2022-08-29T08:25:03.856Z,60.80
2022-08-29T08:26:03.857Z,60.93
2022-08-29T08:27:03.836Z,61.55
2022-08-29T08:28:03.854Z,61.55
2022-08-29T08:29:03.816Z,61.76
2022-08-29T08:30:03.796Z,61.22
2022-08-29T08:31:05.938Z,61.66
2022-08-29T08:32:03.776Z,61.86
2022-08-29T08:33:03.767Z,61.46
2022-08-29T08:34:03.778Z,61.72
2022-08-29T08:35:03.752Z,60.80
2022-08-29T08:36:03.777Z,60.47
2022-08-29T08:37:03.739Z,60.36
2022-08-29T08:38:03.747Z,60.06
2022-08-29T08:39:03.767Z,59.64
2022-08-29T08:40:03.761Z,59.33
2022-08-29T08:41:03.749Z,59.13
2022-08-29T08:42:03.669Z,59.03
2022-08-29T08:43:03.654Z,59.16
2022-08-29T08:44:03.649Z,60.19
2022-08-29T08:45:03.691Z,60.19
2022-08-29T08:46:03.644Z,59.96
2022-08-29T08:47:03.631Z,59.64
2022-08-29T08:48:03.610Z,58.91
2022-08-29T08:49:03.590Z,58.81
2022-08-29T08:50:03.574Z,58.70
2022-08-29T08:51:03.583Z,58.37
2022-08-29T08:52:03.558Z,58.28
2022-08-29T08:53:03.614Z,57.35
2022-08-29T08:54:03.534Z,57.65
2022-08-29T08:55:03.525Z,56.92
2022-08-29T08:56:03.513Z,56.42
2022-08-29T08:57:03.524Z,56.02
2022-08-29T08:58:03.484Z,56.82
2022-08-29T08:59:03.478Z,55.72
2022-08-29T09:00:03.487Z,56.22
2022-08-29T09:01:03.530Z,55.82
2022-08-29T09:02:07.226Z,55.82
2022-08-29T09:03:03.475Z,55.42
2022-08-29T09:04:03.416Z,55.02
2022-08-29T09:05:03.420Z,55.02
2022-08-29T09:06:03.395Z,55.72
2022-08-29T09:07:03.399Z,55.32
2022-08-29T09:08:03.386Z,55.32
2022-08-29T09:09:03.418Z,55.12
2022-08-29T09:10:03.364Z,55.19
2022-08-29T09:11:03.348Z,55.12
2022-08-29T09:12:03.329Z,55.72
2022-08-29T09:13:03.318Z,55.32
2022-08-29T09:14:03.309Z,54.69
2022-08-29T09:15:03.337Z,53.79
2022-08-29T09:16:03.279Z,54.72
2022-08-29T09:17:03.280Z,55.55
2022-08-29T09:18:03.254Z,55.85
2022-08-29T09:19:03.260Z,55.32
2022-08-29T09:20:03.234Z,55.72
2022-08-29T09:21:06.654Z,54.92
2022-08-29T09:22:04.210Z,54.60
2022-08-29T09:23:03.210Z,54.10
2022-08-29T09:24:03.302Z,54.62
2022-08-29T09:25:03.180Z,55.22
2022-08-29T09:26:03.187Z,54.90
2022-08-29T09:27:03.191Z,53.17
2022-08-29T09:28:03.145Z,53.07
2022-08-29T09:29:03.133Z,53.34
2022-08-29T09:30:03.132Z,52.52
2022-08-29T09:31:03.164Z,52.92
2022-08-29T09:32:03.178Z,51.62
2022-08-29T09:33:03.096Z,51.75
2022-08-29T09:34:03.076Z,51.94
2022-08-29T09:35:08.964Z,51.82
2022-08-29T09:36:04.057Z,51.72
2022-08-29T09:37:03.047Z,51.72
2022-08-29T09:38:03.055Z,51.64
2022-08-29T09:39:03.031Z,52.34
2022-08-29T09:40:03.041Z,51.72
2022-08-29T09:41:03.000Z,51.29
2022-08-29T09:42:02.978Z,50.90
2022-08-29T09:43:02.976Z,51.22
2022-08-29T09:44:02.988Z,51.72
2022-08-29T09:45:02.946Z,51.20
2022-08-29T09:46:02.984Z,51.37
2022-08-29T09:47:02.937Z,50.17
2022-08-29T09:48:02.909Z,49.68
2022-08-29T09:49:03.047Z,50.30
2022-08-29T09:50:02.935Z,50.70
2022-08-29T09:51:02.891Z,50.77
2022-08-29T09:52:02.869Z,50.05
2022-08-29T09:53:02.850Z,50.13
2022-08-29T09:54:03.859Z,49.30
2022-08-29T09:55:02.870Z,48.91
2022-08-29T09:56:02.847Z,49.33
2022-08-29T09:57:02.821Z,49.63
2022-08-29T09:58:02.811Z,49.33
2022-08-29T09:59:02.800Z,49.83
2022-08-29T10:00:02.801Z,48.23
2022-08-29T10:01:03.396Z,48.61
2022-08-29T10:02:02.824Z,47.69
2022-08-29T10:03:02.832Z,47.49
2022-08-29T10:04:02.745Z,47.31
2022-08-29T10:05:02.790Z,48.13
2022-08-29T10:06:02.733Z,48.73
2022-08-29T10:07:02.694Z,48.21
2022-08-29T10:08:02.711Z,48.21
2022-08-29T10:09:02.674Z,47.61
2022-08-29T10:10:02.664Z,47.89
2022-08-29T10:11:02.680Z,48.38
2022-08-29T10:12:02.683Z,47.89
2022-08-29T10:13:02.651Z,47.66
2022-08-29T10:14:02.617Z,48.16
2022-08-29T10:15:02.615Z,48.07
2022-08-29T10:16:02.810Z,47.59
2022-08-29T10:17:02.704Z,47.69
2022-08-29T10:18:02.621Z,47.39
2022-08-29T10:19:02.592Z,48.21
2022-08-29T10:20:02.718Z,47.71
2022-08-29T10:21:02.539Z,48.03
2022-08-29T10:22:02.539Z,48.21
2022-08-29T10:23:02.525Z,48.11
2022-08-29T10:24:02.551Z,47.91
2022-08-29T10:25:02.497Z,47.74
2022-08-29T10:26:02.488Z,48.16
2022-08-29T10:27:02.480Z,48.78
2022-08-29T10:28:02.462Z,48.88
2022-08-29T10:29:02.487Z,49.20
2022-08-29T10:30:02.509Z,49.70
2022-08-29T10:31:02.431Z,49.50
2022-08-29T10:32:02.491Z,49.18
2022-08-29T10:33:02.441Z,48.38
2022-08-29T10:34:02.405Z,48.65
2022-08-29T10:35:02.393Z,48.43
2022-08-29T10:36:02.413Z,47.31
2022-08-29T10:37:02.387Z,47.61
2022-08-29T10:38:02.352Z,47.51
2022-08-29T10:39:02.385Z,46.59
2022-08-29T10:40:02.430Z,47.56
2022-08-29T10:41:02.343Z,48.53
2022-08-29T10:42:02.335Z,48.43
2022-08-29T10:43:02.347Z,47.21
2022-08-29T10:44:02.329Z,46.69
2022-08-29T10:45:02.327Z,47.19
2022-08-29T10:46:02.307Z,45.97
2022-08-29T10:47:02.254Z,47.07
2022-08-29T10:48:02.270Z,46.17
2022-08-29T10:49:02.226Z,45.36
2022-08-29T10:50:02.217Z,46.45
2022-08-29T10:51:02.217Z,45.55
2022-08-29T10:52:02.198Z,45.83
2022-08-29T10:53:02.205Z,45.31
2022-08-29T10:54:02.201Z,44.00
2022-08-29T10:55:02.157Z,44.71
2022-08-29T10:56:06.471Z,45.63
2022-08-29T10:57:02.149Z,44.93
2022-08-29T10:58:02.130Z,44.22
2022-08-29T10:59:02.161Z,44.54
2022-08-29T11:00:02.109Z,44.54
2022-08-29T11:01:06.770Z,45.23
2022-08-29T11:02:03.116Z,44.74
2022-08-29T11:03:02.089Z,44.14
2022-08-29T11:04:02.079Z,44.46
2022-08-29T11:05:02.092Z,44.85
2022-08-29T11:06:02.048Z,44.34
2022-08-29T11:07:02.047Z,44.04
2022-08-29T11:08:02.011Z,44.14
2022-08-29T11:09:02.017Z,43.44
2022-08-29T11:10:01.996Z,44.96
2022-08-29T11:11:02.022Z,44.16
2022-08-29T11:12:01.975Z,44.66
2022-08-29T11:13:01.964Z,43.94
2022-08-29T11:14:05.613Z,43.10
2022-08-29T11:15:01.944Z,42.71
2022-08-29T11:16:01.967Z,44.49
2022-08-29T11:17:03.352Z,44.02
2022-08-29T11:18:01.915Z,44.66
2022-08-29T11:19:01.893Z,46.08
2022-08-29T11:20:01.885Z,45.50
2022-08-29T11:21:01.886Z,46.61
2022-08-29T11:22:01.883Z,46.81
2022-08-29T11:23:01.856Z,46.20
2022-08-29T11:24:01.850Z,46.30
2022-08-29T11:25:01.827Z,47.09
2022-08-29T11:26:01.827Z,46.27
2022-08-29T11:27:01.828Z,45.55
2022-08-29T11:28:01.850Z,45.85
2022-08-29T11:29:01.805Z,45.45
2022-08-29T11:30:01.771Z,44.66
2022-08-29T11:31:01.929Z,44.38
2022-08-29T11:32:01.749Z,44.58
2022-08-29T11:33:01.741Z,44.85
2022-08-29T11:34:01.737Z,44.16
2022-08-29T11:35:02.449Z,44.16
2022-08-29T11:36:04.406Z,44.26
2022-08-29T11:37:01.690Z,44.62
2022-08-29T11:38:01.694Z,42.83
2022-08-29T11:39:01.690Z,43.50
2022-08-29T11:40:01.673Z,42.41
2022-08-29T11:41:28.476Z,42.49
2022-08-29T11:42:02.739Z,42.47
2022-08-29T11:43:01.648Z,42.07
2022-08-29T11:44:01.612Z,42.39
2022-08-29T11:45:01.652Z,43.23
2022-08-29T11:46:01.626Z,43.52
2022-08-29T11:47:01.665Z,44.12
2022-08-29T11:48:01.562Z,44.02
2022-08-29T11:49:01.567Z,44.52
2022-08-29T11:50:01.584Z,43.90
2022-08-29T11:51:01.692Z,43.74
2022-08-29T11:52:01.530Z,44.92
2022-08-29T11:53:01.550Z,44.42
2022-08-29T11:54:01.502Z,43.30
2022-08-29T11:55:01.495Z,43.30
2022-08-29T11:56:01.532Z,42.91
2022-08-29T11:57:01.652Z,43.60
2022-08-29T11:58:05.092Z,43.98
2022-08-29T11:59:01.441Z,42.07
2022-08-29T12:00:01.429Z,42.66
2022-08-29T12:01:01.417Z,42.57
2022-08-29T12:02:01.519Z,43.26
2022-08-29T12:03:02.585Z,42.96
2022-08-29T12:04:01.380Z,41.97
2022-08-29T12:05:01.378Z,43.18
2022-08-29T12:06:01.359Z,43.48
2022-08-29T12:07:01.623Z,44.00
2022-08-29T12:08:14.431Z,43.20
2022-08-29T12:09:04.904Z,44.02
2022-08-29T12:10:01.322Z,43.80
2022-08-29T12:11:01.302Z,43.58
2022-08-29T12:12:01.451Z,43.28
2022-08-29T12:13:01.313Z,43.38
2022-08-29T12:14:01.434Z,43.40
2022-08-29T12:15:01.278Z,43.50
2022-08-29T12:16:01.333Z,43.30
2022-08-29T12:17:01.358Z,43.50
2022-08-29T12:18:02.767Z,43.10
2022-08-29T12:19:02.241Z,43.60
2022-08-29T12:20:01.247Z,42.61
2022-08-29T12:21:01.310Z,43.23
2022-08-29T12:22:01.183Z,42.93
2022-08-29T12:23:01.190Z,43.02
2022-08-29T12:24:01.189Z,42.80
2022-08-29T12:25:01.151Z,42.72
2022-08-29T12:26:21.541Z,42.93
2022-08-29T12:27:03.077Z,43.02
2022-08-29T12:28:01.118Z,42.80
2022-08-29T12:29:01.096Z,43.60
2022-08-29T12:30:01.128Z,43.30
2022-08-29T12:31:01.407Z,43.60
2022-08-29T12:32:18.946Z,42.91
2022-08-29T12:33:02.069Z,43.20
2022-08-29T12:34:01.270Z,43.20
2022-08-29T12:35:01.080Z,43.18
2022-08-29T12:36:01.018Z,42.29
2022-08-29T12:37:01.019Z,42.71
2022-08-29T12:38:01.003Z,43.01
2022-08-29T12:39:00.999Z,42.80
2022-08-29T12:40:01.041Z,42.58
2022-08-29T12:41:01.002Z,42.39
2022-08-29T12:42:00.949Z,43.30
2022-08-29T12:43:00.997Z,42.80
2022-08-29T12:44:00.931Z,42.61
2022-08-29T12:45:00.981Z,42.41
2022-08-29T12:46:00.942Z,42.31
2022-08-29T12:47:01.065Z,42.80
2022-08-29T12:48:00.943Z,42.33
2022-08-29T12:49:00.875Z,42.13
2022-08-29T12:50:00.923Z,43.42
2022-08-29T12:51:00.876Z,42.31
2022-08-29T12:52:01.016Z,42.58